Time;durP1;ratioP1;P1;durP2;ratioP2;P2;SDS_P1;SDS_P2;PMS_P1;PMS_P2;Temp;Humidity;BMP_temperature;BMP_pressure;BME280_temperature;BME280_humidity;BME280_pressure;Samples;Min_cycle;Max_cycle;Signal;HPM_P1;HPM_P2
2023/10/21 00:01:30;;;;;;;0.30;0.30;;;6.20;99.90;;;;;;5055486;28;20183;-94
2023/10/21 00:03:55;;;;;;;0.30;0.30;;;6.20;99.90;;;;;;5056845;28;20187;-95
2023/10/21 00:06:21;;;;;;;0.30;0.30;;;6.20;99.90;;;;;;5054275;28;20194;-94
2023/10/21 00:08:46;;;;;;;0.30;0.30;;;6.10;99.90;;;;;;5043627;28;20194;-93
2023/10/21 00:11:12;;;;;;;0.30;0.30;;;6.20;99.90;;;;;;5038233;28;20539;-94
2023/10/21 00:13:38;;;;;;;0.30;0.30;;;6.10;99.90;;;;;;5055864;28;20733;-93
2023/10/21 00:16:04;;;;;;;0.30;0.30;;;6.10;99.90;;;;;;5054916;28;20545;-92
2023/10/21 00:18:30;;;;;;;0.30;0.30;;;6.10;99.90;;;;;;5056321;28;20429;-93
2023/10/21 00:20:55;;;;;;;0.30;0.30;;;6.10;99.90;;;;;;5056125;28;20577;-96
2023/10/21 00:23:24;;;;;;;0.30;0.30;;;6.10;99.90;;;;;;5055107;28;20225;-94
2023/10/21 00:25:49;;;;;;;0.30;0.30;;;6.10;99.90;;;;;;5057503;28;20187;-96
2023/10/21 00:28:15;;;;;;;0.30;0.30;;;6.10;99.90;;;;;;5053363;28;20508;-93
2023/10/21 00:30:45;;;;;;;0.30;0.30;;;6.10;99.90;;;;;;5053888;28;20191;-94
2023/10/21 00:33:11;;;;;;;0.30;0.30;;;6.10;99.90;;;;;;5034775;28;20187;-94
2023/10/21 00:35:36;;;;;;;0.30;0.30;;;6.10;99.90;;;;;;5028023;28;20476;-92
2023/10/21 00:38:02;;;;;;;0.30;0.30;;;6.10;99.90;;;;;;5054157;28;20441;-92
2023/10/21 00:40:28;;;;;;;0.40;0.40;;;6.10;99.90;;;;;;5041718;28;20201;-92
2023/10/21 00:42:54;;;;;;;0.20;0.20;;;6.10;99.90;;;;;;5035439;28;20438;-93
2023/10/21 00:45:19;;;;;;;0.30;0.30;;;6.10;99.90;;;;;;5053557;28;20183;-94
2023/10/21 00:47:45;;;;;;;0.30;0.30;;;6.20;99.90;;;;;;5051187;28;20252;-92
2023/10/21 00:50:11;;;;;;;0.30;0.30;;;6.10;99.90;;;;;;5036432;28;20834;-92
2023/10/21 00:52:44;;;;;;;0.30;0.30;;;6.10;99.90;;;;;;5054736;28;20533;-92
2023/10/21 00:55:11;;;;;;;0.30;0.30;;;6.10;99.90;;;;;;5053315;28;20207;-93
2023/10/21 00:57:37;;;;;;;0.30;0.30;;;6.10;99.90;;;;;;5035733;28;20437;-93
2023/10/21 01:00:10;;;;;;;0.30;0.30;;;6.20;99.90;;;;;;5053461;28;20453;-91
2023/10/21 01:02:38;;;;;;;0.30;0.30;;;6.20;99.90;;;;;;5054183;28;20194;-94
2023/10/21 01:05:05;;;;;;;0.30;0.30;;;6.20;99.90;;;;;;5054242;28;20441;-92
2023/10/21 01:07:34;;;;;;;0.30;0.30;;;6.10;99.90;;;;;;5054178;28;20445;-93
2023/10/21 01:10:00;;;;;;;0.30;0.30;;;6.20;99.90;;;;;;5053256;28;20441;-94
2023/10/21 01:12:26;;;;;;;0.30;0.30;;;6.20;99.90;;;;;;5053768;28;20921;-93
2023/10/21 01:14:52;;;;;;;0.30;0.30;;;6.10;99.90;;;;;;5053965;28;20480;-92
2023/10/21 01:17:18;;;;;;;0.30;0.30;;;6.20;99.90;;;;;;5054100;28;20202;-95
2023/10/21 01:19:43;;;;;;;0.30;0.30;;;6.10;99.90;;;;;;5054171;28;20567;-93
2023/10/21 01:22:09;;;;;;;0.30;0.30;;;6.10;99.90;;;;;;5017299;28;20661;-93
2023/10/21 01:24:35;;;;;;;0.30;0.30;;;6.20;99.90;;;;;;5047817;28;20194;-93
2023/10/21 01:27:00;;;;;;;0.30;0.30;;;6.20;99.90;;;;;;5053667;28;20535;-92
2023/10/21 01:29:26;;;;;;;0.30;0.30;;;6.20;99.90;;;;;;5054058;28;20191;-93
2023/10/21 01:31:51;;;;;;;0.30;0.30;;;6.20;99.90;;;;;;5046736;28;20191;-93
2023/10/21 01:34:17;;;;;;;0.30;0.30;;;6.20;99.90;;;;;;5053199;28;20277;-93
2023/10/21 01:36:42;;;;;;;0.30;0.30;;;6.20;99.90;;;;;;5053621;28;20191;-92
2023/10/21 01:39:10;;;;;;;0.30;0.30;;;6.20;99.90;;;;;;5053603;28;20191;-92
2023/10/21 01:41:38;;;;;;;0.30;0.30;;;6.20;99.90;;;;;;5060024;28;20649;-92
2023/10/21 01:44:04;;;;;;;0.30;0.30;;;6.20;99.90;;;;;;5055111;28;20523;-92
2023/10/21 01:46:31;;;;;;;0.30;0.30;;;6.10;99.90;;;;;;5053270;28;20528;-92
2023/10/21 01:48:57;;;;;;;0.30;0.30;;;6.20;99.90;;;;;;5053416;28;20944;-92
2023/10/21 01:51:22;;;;;;;0.30;0.30;;;6.10;99.90;;;;;;5053271;28;20508;-92
2023/10/21 01:53:48;;;;;;;0.30;0.30;;;6.20;99.90;;;;;;5053639;28;20292;-91
2023/10/21 01:56:13;;;;;;;0.30;0.30;;;6.20;99.90;;;;;;5035990;28;20190;-92
2023/10/21 01:58:39;;;;;;;0.30;0.30;;;6.20;99.90;;;;;;5053672;28;20179;-93
2023/10/21 02:01:11;;;;;;;0.30;0.30;;;6.20;99.90;;;;;;5052441;28;20195;-90
2023/10/21 02:03:37;;;;;;;0.30;0.30;;;6.20;99.90;;;;;;5053464;28;20516;-93
2023/10/21 02:06:06;;;;;;;0.30;0.30;;;6.20;99.90;;;;;;5050867;28;20460;-90
2023/10/21 02:08:32;;;;;;;0.30;0.30;;;6.20;99.90;;;;;;5052820;28;20457;-92
2023/10/21 02:10:57;;;;;;;0.30;0.30;;;6.20;99.90;;;;;;5052701;28;20460;-92
2023/10/21 02:13:23;;;;;;;0.30;0.30;;;6.10;99.90;;;;;;5049803;28;20190;-92
2023/10/21 02:15:50;;;;;;;0.40;0.40;;;6.20;99.90;;;;;;5052276;28;20197;-90
2023/10/21 02:18:16;;;;;;;0.30;0.30;;;6.20;99.90;;;;;;5052276;28;20178;-89
2023/10/21 02:20:42;;;;;;;0.30;0.30;;;6.20;99.90;;;;;;5034837;28;20445;-93
2023/10/21 02:23:08;;;;;;;0.30;0.30;;;6.20;99.90;;;;;;5053027;28;20422;-93
2023/10/21 02:25:34;;;;;;;0.30;0.30;;;6.20;99.90;;;;;;5034803;28;20178;-92
2023/10/21 02:28:03;;;;;;;0.30;0.30;;;6.20;99.90;;;;;;5052963;28;20183;-92
2023/10/21 02:30:29;;;;;;;0.30;0.30;;;6.20;99.90;;;;;;5051727;28;20437;-91
2023/10/21 02:32:55;;;;;;;0.30;0.30;;;6.20;99.90;;;;;;5034255;28;20442;-93
2023/10/21 02:35:21;;;;;;;0.30;0.30;;;6.20;99.90;;;;;;5051944;28;20682;-92
2023/10/21 02:37:47;;;;;;;0.30;0.30;;;6.20;99.90;;;;;;5052132;28;20248;-90
2023/10/21 02:40:16;;;;;;;0.30;0.30;;;6.20;99.90;;;;;;5034521;28;20178;-91
2023/10/21 02:42:43;;;;;;;0.30;0.30;;;6.30;99.90;;;;;;5049868;28;20496;-92
2023/10/21 02:45:09;;;;;;;0.30;0.30;;;6.20;99.90;;;;;;5051818;28;20968;-93
2023/10/21 02:47:36;;;;;;;0.30;0.30;;;6.30;99.90;;;;;;5052223;28;20449;-92
2023/10/21 02:50:03;;;;;;;0.30;0.30;;;6.20;99.90;;;;;;5038960;28;20478;-93
2023/10/21 02:52:28;;;;;;;0.30;0.30;;;6.30;99.90;;;;;;5048721;28;20477;-90
2023/10/21 02:54:54;;;;;;;0.30;0.30;;;6.30;99.90;;;;;;5049072;28;20501;-92
2023/10/21 02:57:20;;;;;;;0.30;0.30;;;6.30;99.90;;;;;;5044221;28;20553;-90
2023/10/21 02:59:46;;;;;;;0.30;0.30;;;6.30;99.90;;;;;;5042380;28;20186;-91
2023/10/21 03:02:13;;;;;;;0.30;0.30;;;6.30;99.90;;;;;;5045890;28;20816;-91
2023/10/21 03:04:39;;;;;;;0.30;0.30;;;6.30;99.90;;;;;;5034453;28;20449;-90
2023/10/21 03:07:05;;;;;;;0.30;0.30;;;6.30;99.90;;;;;;5031910;28;20439;-92
2023/10/21 03:09:30;;;;;;;0.20;0.20;;;6.40;99.90;;;;;;5034645;28;20441;-92
2023/10/21 03:11:56;;;;;;;0.30;0.30;;;6.40;99.90;;;;;;5052229;28;20261;-92
2023/10/21 03:14:23;;;;;;;0.20;0.20;;;6.40;99.90;;;;;;5052428;28;20292;-91
2023/10/21 03:16:48;;;;;;;0.30;0.30;;;6.40;99.90;;;;;;5034248;28;20213;-93
2023/10/21 03:19:14;;;;;;;0.20;0.20;;;6.40;99.90;;;;;;5034286;28;21260;-91
2023/10/21 03:21:40;;;;;;;0.30;0.30;;;6.40;99.90;;;;;;5050260;28;20190;-91
2023/10/21 03:24:06;;;;;;;0.30;0.30;;;6.40;99.90;;;;;;5034502;28;21271;-91
2023/10/21 03:26:31;;;;;;;0.40;0.40;;;6.40;99.90;;;;;;5049325;28;20193;-91
2023/10/21 03:28:57;;;;;;;0.40;0.40;;;6.40;99.90;;;;;;5055723;28;20568;-91
2023/10/21 03:31:23;;;;;;;0.30;0.30;;;6.40;99.90;;;;;;5055398;28;20216;-92
2023/10/21 03:33:48;;;;;;;0.30;0.30;;;6.40;99.90;;;;;;5054873;28;20231;-91
2023/10/21 03:36:14;;;;;;;0.30;0.30;;;6.40;99.90;;;;;;5054291;28;20421;-91
2023/10/21 03:38:40;;;;;;;0.20;0.20;;;6.40;99.90;;;;;;5070020;28;20232;-89
2023/10/21 03:41:08;;;;;;;0.30;0.30;;;6.40;99.90;;;;;;5055806;28;20429;-92
2023/10/21 03:43:34;;;;;;;0.30;0.30;;;6.50;99.90;;;;;;5038180;28;20194;-92
2023/10/21 03:46:14;;;;;;;0.30;0.30;;;6.50;99.90;;;;;;5055172;28;20433;-92
2023/10/21 03:48:40;;;;;;;0.30;0.30;;;6.40;99.90;;;;;;5036305;28;20591;-92
2023/10/21 03:51:11;;;;;;;0.30;0.30;;;6.50;99.90;;;;;;5050941;28;20545;-92
2023/10/21 03:53:37;;;;;;;0.30;0.30;;;6.50;99.90;;;;;;5033750;28;20440;-91
2023/10/21 03:56:03;;;;;;;0.30;0.30;;;6.50;99.90;;;;;;5054925;28;20956;-90
2023/10/21 03:58:29;;;;;;;0.20;0.20;;;6.50;99.90;;;;;;5055298;28;20452;-90
2023/10/21 04:00:57;;;;;;;0.30;0.30;;;6.50;99.90;;;;;;5056130;28;20033;-92
2023/10/21 04:03:24;;;;;;;0.30;0.30;;;6.50;99.90;;;;;;5034868;28;20437;-92
2023/10/21 04:05:51;;;;;;;0.30;0.30;;;6.50;99.90;;;;;;5042167;28;20436;-90
2023/10/21 04:08:16;;;;;;;0.30;0.30;;;6.50;99.90;;;;;;5055438;28;20490;-92
2023/10/21 04:10:42;;;;;;;0.20;0.20;;;6.50;99.90;;;;;;5055700;28;20424;-93
2023/10/21 04:13:08;;;;;;;0.30;0.30;;;6.50;99.90;;;;;;5055654;28;20409;-92
2023/10/21 04:15:34;;;;;;;0.20;0.20;;;6.50;99.90;;;;;;5055328;28;20238;-92
2023/10/21 04:17:59;;;;;;;0.27;0.27;;;6.60;99.90;;;;;;5054629;28;20445;-92
2023/10/21 04:20:25;;;;;;;0.30;0.30;;;6.60;99.90;;;;;;5055607;28;20240;-92
2023/10/21 04:22:50;;;;;;;0.20;0.20;;;6.60;99.90;;;;;;5036620;28;20256;-92
2023/10/21 04:25:16;;;;;;;0.30;0.30;;;6.60;99.90;;;;;;5055159;28;20179;-93
2023/10/21 04:27:42;;;;;;;0.23;0.23;;;6.60;99.90;;;;;;5054934;28;20436;-93
2023/10/21 04:30:08;;;;;;;0.30;0.30;;;6.60;99.90;;;;;;5054297;28;20206;-93
2023/10/21 04:32:34;;;;;;;0.30;0.30;;;6.60;99.90;;;;;;5054957;28;20198;-92
2023/10/21 04:35:00;;;;;;;0.20;0.20;;;6.60;99.90;;;;;;5054430;28;20244;-92
2023/10/21 04:37:26;;;;;;;0.30;0.30;;;6.60;99.90;;;;;;5052454;28;20469;-94
2023/10/21 04:39:52;;;;;;;0.30;0.30;;;6.60;99.90;;;;;;5054753;28;20468;-93
2023/10/21 04:42:18;;;;;;;0.20;0.20;;;6.60;99.90;;;;;;5054494;28;20182;-93
2023/10/21 04:44:44;;;;;;;0.30;0.30;;;6.70;99.90;;;;;;5037073;28;20449;-92
2023/10/21 04:47:10;;;;;;;0.20;0.20;;;6.70;99.90;;;;;;5054489;28;20218;-93
2023/10/21 04:49:36;;;;;;;0.23;0.23;;;6.70;99.90;;;;;;5055101;28;20857;-92
2023/10/21 04:52:03;;;;;;;0.30;0.30;;;6.70;99.90;;;;;;5054215;28;20517;-91
2023/10/21 04:54:28;;;;;;;0.30;0.30;;;6.70;99.90;;;;;;5052558;28;20292;-92
2023/10/21 04:56:54;;;;;;;0.30;0.30;;;6.70;99.90;;;;;;5054829;28;20468;-91
2023/10/21 04:59:20;;;;;;;0.30;0.30;;;6.70;99.90;;;;;;5054648;28;20254;-90
2023/10/21 05:01:46;;;;;;;0.20;0.20;;;6.70;99.90;;;;;;5052067;28;20178;-92
2023/10/21 05:04:11;;;;;;;0.30;0.30;;;6.80;99.90;;;;;;5053084;28;20545;-93
2023/10/21 05:06:37;;;;;;;0.20;0.20;;;6.70;99.90;;;;;;5053054;28;20892;-91
2023/10/21 05:09:03;;;;;;;0.30;0.30;;;6.80;99.90;;;;;;5058518;28;20540;-91
2023/10/21 05:11:30;;;;;;;0.30;0.30;;;6.70;99.90;;;;;;5052504;28;20209;-90
2023/10/21 05:13:56;;;;;;;0.30;0.30;;;6.80;99.90;;;;;;5056404;28;20662;-91
2023/10/21 05:16:22;;;;;;;0.30;0.30;;;6.70;99.90;;;;;;5031904;28;20453;-89
2023/10/21 05:18:48;;;;;;;0.27;0.27;;;6.70;99.90;;;;;;5050182;28;20425;-93
2023/10/21 05:21:14;;;;;;;0.30;0.30;;;6.70;99.90;;;;;;5051335;28;20959;-92
2023/10/21 05:23:40;;;;;;;0.30;0.30;;;6.80;99.90;;;;;;5052321;28;20501;-94
2023/10/21 05:26:05;;;;;;;0.30;0.30;;;6.80;99.90;;;;;;5053251;28;20256;-94
2023/10/21 05:28:31;;;;;;;0.20;0.20;;;6.70;99.90;;;;;;5054209;28;20228;-93
2023/10/21 05:30:57;;;;;;;0.30;0.30;;;6.80;99.90;;;;;;5053796;28;20183;-92
2023/10/21 05:33:24;;;;;;;0.20;0.20;;;6.80;99.90;;;;;;5053304;28;20193;-91
2023/10/21 05:35:49;;;;;;;0.30;0.30;;;6.80;99.90;;;;;;5053112;28;20457;-93
2023/10/21 05:38:15;;;;;;;0.30;0.30;;;6.80;99.90;;;;;;5053732;28;20440;-94
2023/10/21 05:40:41;;;;;;;0.30;0.30;;;6.80;99.90;;;;;;5054337;28;20555;-94
2023/10/21 05:43:07;;;;;;;0.30;0.30;;;6.80;99.90;;;;;;5053761;28;20191;-94
2023/10/21 05:45:33;;;;;;;0.30;0.30;;;6.80;99.90;;;;;;5052548;28;20441;-89
2023/10/21 05:47:59;;;;;;;0.20;0.20;;;6.80;99.90;;;;;;5035836;28;20203;-91
2023/10/21 05:50:25;;;;;;;0.20;0.20;;;6.80;99.90;;;;;;5045776;28;20476;-94
2023/10/21 05:52:54;;;;;;;0.30;0.30;;;6.80;99.90;;;;;;5053458;28;20258;-92
2023/10/21 05:55:20;;;;;;;0.30;0.30;;;6.80;99.90;;;;;;5056020;28;20263;-91
2023/10/21 05:57:47;;;;;;;0.30;0.30;;;6.80;99.90;;;;;;5053447;28;20433;-91
2023/10/21 06:00:13;;;;;;;0.30;0.30;;;6.90;99.90;;;;;;5052277;28;20183;-89
2023/10/21 06:02:40;;;;;;;0.30;0.30;;;6.90;99.90;;;;;;5051588;28;20445;-91
2023/10/21 06:05:06;;;;;;;0.30;0.30;;;6.90;99.90;;;;;;5034193;28;20441;-93
2023/10/21 06:07:31;;;;;;;0.30;0.30;;;6.90;99.90;;;;;;5052565;28;20459;-93
2023/10/21 06:09:57;;;;;;;0.30;0.30;;;6.80;99.90;;;;;;5050757;28;20600;-89
2023/10/21 06:12:23;;;;;;;0.30;0.30;;;6.90;99.90;;;;;;5033290;28;20445;-88
2023/10/21 06:14:50;;;;;;;0.30;0.30;;;6.90;99.90;;;;;;5032706;28;20233;-88
2023/10/21 06:17:16;;;;;;;0.30;0.30;;;6.90;99.90;;;;;;5041906;28;20653;-89
2023/10/21 06:19:43;;;;;;;0.30;0.30;;;6.90;99.90;;;;;;5053192;28;20453;-88
2023/10/21 06:22:09;;;;;;;0.20;0.20;;;7.00;99.90;;;;;;5051437;28;20201;-90
2023/10/21 06:24:34;;;;;;;0.30;0.30;;;6.90;99.90;;;;;;5054999;28;20449;-86
2023/10/21 06:27:00;;;;;;;0.30;0.30;;;6.90;99.90;;;;;;5037489;28;20195;-88
2023/10/21 06:29:26;;;;;;;0.20;0.20;;;6.90;99.90;;;;;;5051270;28;20717;-88
2023/10/21 06:31:52;;;;;;;0.30;0.30;;;6.90;99.90;;;;;;5050194;28;20524;-93
2023/10/21 06:34:18;;;;;;;0.30;0.30;;;6.90;99.90;;;;;;5052183;28;20230;-90
2023/10/21 06:36:43;;;;;;;0.30;0.30;;;7.00;99.90;;;;;;5050629;28;20469;-88
2023/10/21 06:39:08;;;;;;;0.30;0.30;;;7.00;99.90;;;;;;5051703;28;20195;-92
2023/10/21 06:41:34;;;;;;;0.30;0.30;;;7.00;99.90;;;;;;5034893;28;20191;-90
2023/10/21 06:44:00;;;;;;;0.30;0.30;;;7.00;99.90;;;;;;5032529;28;20187;-90
2023/10/21 06:46:27;;;;;;;0.20;0.20;;;7.00;99.90;;;;;;5051386;28;20197;-92
2023/10/21 06:48:53;;;;;;;0.30;0.30;;;7.00;99.90;;;;;;5055528;28;20428;-92
2023/10/21 06:51:19;;;;;;;0.30;0.30;;;7.10;99.90;;;;;;5035060;28;20473;-92
2023/10/21 06:53:45;;;;;;;0.20;0.20;;;7.10;99.90;;;;;;5032450;28;20452;-86
2023/10/21 06:56:14;;;;;;;0.40;0.40;;;7.00;99.90;;;;;;5050884;28;20190;-88
2023/10/21 06:58:40;;;;;;;0.30;0.30;;;7.00;99.90;;;;;;5051351;28;20210;-86
2023/10/21 07:01:07;;;;;;;0.30;0.30;;;7.10;99.90;;;;;;5034293;28;20936;-85
2023/10/21 07:03:33;;;;;;;0.30;0.30;;;7.10;99.90;;;;;;5033389;28;20468;-85
2023/10/21 07:05:58;;;;;;;0.30;0.30;;;7.10;99.90;;;;;;5053171;28;20524;-85
2023/10/21 07:08:24;;;;;;;0.30;0.30;;;7.10;99.90;;;;;;5035569;28;20867;-82
2023/10/21 07:10:53;;;;;;;0.40;0.40;;;7.10;99.90;;;;;;5052735;28;20263;-84
2023/10/21 07:13:19;;;;;;;0.30;0.30;;;7.20;99.90;;;;;;5060172;28;20190;-85
2023/10/21 07:15:45;;;;;;;0.30;0.30;;;7.20;99.90;;;;;;5052380;28;20469;-86
2023/10/21 07:18:11;;;;;;;0.30;0.30;;;7.20;99.90;;;;;;5034770;28;20428;-86
2023/10/21 07:20:36;;;;;;;0.30;0.30;;;7.20;99.90;;;;;;5054155;28;20206;-87
2023/10/21 07:23:02;;;;;;;0.30;0.30;;;7.20;99.90;;;;;;5052302;28;20240;-85
2023/10/21 07:25:28;;;;;;;0.30;0.30;;;7.20;99.90;;;;;;5053166;28;20194;-88
2023/10/21 07:27:54;;;;;;;0.23;0.23;;;7.20;99.90;;;;;;5053079;28;20504;-88
2023/10/21 07:30:24;;;;;;;0.30;0.30;;;7.20;99.90;;;;;;5052443;28;20512;-89
2023/10/21 07:32:50;;;;;;;0.30;0.30;;;7.20;99.90;;;;;;5054140;28;20425;-88
2023/10/21 07:35:16;;;;;;;0.30;0.30;;;7.20;99.90;;;;;;5053043;28;20856;-87
2023/10/21 07:37:44;;;;;;;0.30;0.30;;;7.30;99.90;;;;;;5034700;28;20190;-86
2023/10/21 07:40:11;;;;;;;0.20;0.20;;;7.30;99.90;;;;;;5052425;28;20441;-87
2023/10/21 07:42:37;;;;;;;0.30;0.30;;;7.40;99.90;;;;;;5056292;28;20447;-84
2023/10/21 07:45:06;;;;;;;0.30;0.30;;;7.40;99.90;;;;;;5048209;28;21006;-84
2023/10/21 07:47:36;;;;;;;0.20;0.20;;;7.40;99.90;;;;;;5042367;28;20491;-84
2023/10/21 07:50:06;;;;;;;0.30;0.30;;;7.40;99.90;;;;;;5051802;28;20503;-84
2023/10/21 07:52:32;;;;;;;0.27;0.27;;;7.40;99.90;;;;;;5053853;28;20458;-83
2023/10/21 07:54:58;;;;;;;0.30;0.30;;;7.40;99.90;;;;;;5052773;28;20953;-83
2023/10/21 07:57:23;;;;;;;0.40;0.40;;;7.40;99.90;;;;;;5034844;28;20445;-83
2023/10/21 07:59:49;;;;;;;0.30;0.30;;;7.40;99.90;;;;;;5034922;28;20190;-83
2023/10/21 08:02:14;;;;;;;0.30;0.30;;;7.40;99.90;;;;;;5052612;28;20193;-84
2023/10/21 08:04:40;;;;;;;0.20;0.20;;;7.40;99.90;;;;;;5051526;28;20186;-83
2023/10/21 08:07:05;;;;;;;0.20;0.20;;;7.50;99.90;;;;;;5051934;28;20183;-81
2023/10/21 08:09:31;;;;;;;0.20;0.20;;;7.40;99.90;;;;;;5050535;28;20628;-85
2023/10/21 08:11:58;;;;;;;0.20;0.20;;;7.50;99.90;;;;;;5034713;28;20187;-87
2023/10/21 08:14:26;;;;;;;0.20;0.20;;;7.50;99.90;;;;;;5055865;28;20288;-86
2023/10/21 08:16:52;;;;;;;0.20;0.20;;;7.50;99.90;;;;;;5047607;28;20473;-86
2023/10/21 08:19:18;;;;;;;0.30;0.30;;;7.50;99.90;;;;;;5039950;28;20429;-88
2023/10/21 08:21:43;;;;;;;0.20;0.20;;;7.60;99.90;;;;;;5034288;28;20452;-85
2023/10/21 08:24:09;;;;;;;0.30;0.30;;;7.60;99.90;;;;;;5052027;28;20182;-84
2023/10/21 08:26:35;;;;;;;0.20;0.20;;;7.60;99.90;;;;;;5052407;28;20178;-85
2023/10/21 08:29:00;;;;;;;0.20;0.20;;;7.60;99.90;;;;;;5032235;28;20179;-84
2023/10/21 08:31:28;;;;;;;0.20;0.20;;;7.60;99.90;;;;;;5051446;28;20929;-87
2023/10/21 08:33:53;;;;;;;0.23;0.23;;;7.60;99.90;;;;;;5034838;28;20256;-86
2023/10/21 08:36:20;;;;;;;0.20;0.20;;;7.70;99.90;;;;;;5052369;28;20799;-86
2023/10/21 08:38:50;;;;;;;0.20;0.20;;;7.70;99.90;;;;;;5051476;28;20273;-85
2023/10/21 08:41:16;;;;;;;0.30;0.30;;;7.70;99.90;;;;;;5052782;28;20425;-86
2023/10/21 08:43:49;;;;;;;0.20;0.20;;;7.70;99.90;;;;;;5035549;28;20456;-86
2023/10/21 08:46:16;;;;;;;0.20;0.20;;;7.80;99.90;;;;;;5051668;28;20433;-88
2023/10/21 08:48:46;;;;;;;0.20;0.20;;;7.80;99.90;;;;;;5034419;28;21022;-86
2023/10/21 08:51:25;;;;;;;0.20;0.20;;;7.90;99.90;;;;;;5023016;28;20929;-89
2023/10/21 08:53:53;;;;;;;0.20;0.20;;;7.90;99.90;;;;;;5002026;28;20485;-86
2023/10/21 08:56:18;;;;;;;0.20;0.20;;;7.90;99.90;;;;;;5016730;28;20455;-89
2023/10/21 08:58:44;;;;;;;0.20;0.20;;;7.90;99.90;;;;;;5022558;28;20582;-89
2023/10/21 09:01:11;;;;;;;0.20;0.20;;;7.90;99.90;;;;;;5017707;28;20533;-87
2023/10/21 09:03:37;;;;;;;0.20;0.20;;;7.90;99.90;;;;;;5017455;28;20277;-90
2023/10/21 09:06:10;;;;;;;0.20;0.20;;;7.90;99.90;;;;;;5012179;28;20952;-90
2023/10/21 09:08:36;;;;;;;0.20;0.20;;;7.80;99.90;;;;;;5017204;28;20192;-87
2023/10/21 09:11:10;;;;;;;0.20;0.20;;;7.80;99.90;;;;;;5007868;28;20448;-84
2023/10/21 09:13:38;;;;;;;0.20;0.20;;;7.90;99.90;;;;;;5007428;28;20938;-84
2023/10/21 09:16:26;;;;;;;0.20;0.20;;;7.90;99.90;;;;;;5009737;28;20457;-84
2023/10/21 09:19:01;;;;;;;0.20;0.20;;;7.90;99.90;;;;;;5011062;28;21021;-83
2023/10/21 09:21:36;;;;;;;0.20;0.20;;;7.90;99.90;;;;;;4992977;28;21170;-85
2023/10/21 09:24:06;;;;;;;0.20;0.20;;;7.90;99.90;;;;;;5011288;28;20475;-86
2023/10/21 09:26:36;;;;;;;0.20;0.20;;;8.00;99.90;;;;;;5010234;28;20526;-83
2023/10/21 09:29:06;;;;;;;0.20;0.20;;;8.00;99.90;;;;;;5008477;28;20471;-86
2023/10/21 09:31:46;;;;;;;0.30;0.30;;;8.10;99.90;;;;;;5012654;28;20423;-88
2023/10/21 09:34:20;;;;;;;0.20;0.20;;;8.20;99.90;;;;;;5025167;28;20563;-86
2023/10/21 09:36:47;;;;;;;0.20;0.20;;;8.10;99.90;;;;;;5007759;28;20974;-87
2023/10/21 09:39:12;;;;;;;0.20;0.20;;;8.20;99.90;;;;;;5009765;28;20438;-87
2023/10/21 09:41:40;;;;;;;0.20;0.20;;;8.20;99.90;;;;;;5010536;28;20947;-86
2023/10/21 09:44:08;;;;;;;0.20;0.20;;;8.30;99.90;;;;;;5008777;28;20176;-90
2023/10/21 09:46:35;;;;;;;0.20;0.20;;;8.30;99.90;;;;;;5015001;28;20962;-89
2023/10/21 09:49:05;;;;;;;0.20;0.20;;;8.40;99.90;;;;;;5014038;28;20458;-89
2023/10/21 09:51:36;;;;;;;0.20;0.20;;;8.50;99.90;;;;;;5043104;28;20461;-88
2023/10/21 09:54:10;;;;;;;0.20;0.20;;;8.70;99.90;;;;;;5030881;28;20556;-88
2023/10/21 09:56:37;;;;;;;0.20;0.20;;;8.80;99.90;;;;;;5032081;28;20440;-88
2023/10/21 09:59:04;;;;;;;0.17;0.17;;;8.80;99.90;;;;;;5050651;28;20432;-87
2023/10/21 10:01:30;;;;;;;0.20;0.20;;;8.80;99.90;;;;;;5030715;28;20449;-88
2023/10/21 10:03:59;;;;;;;0.20;0.20;;;8.80;99.90;;;;;;5049988;28;20932;-87
2023/10/21 10:06:26;;;;;;;0.20;0.20;;;8.80;99.90;;;;;;5031144;28;20459;-89
2023/10/21 10:08:51;;;;;;;0.20;0.20;;;8.70;99.90;;;;;;5049294;28;20421;-88
2023/10/21 10:11:18;;;;;;;0.20;0.20;;;8.80;99.90;;;;;;5050332;28;20448;-88
2023/10/21 10:13:49;;;;;;;0.20;0.20;;;8.80;99.90;;;;;;5050501;28;20545;-91
2023/10/21 10:16:25;;;;;;;0.20;0.20;;;8.80;99.90;;;;;;5035057;28;20474;-93
2023/10/21 10:18:52;;;;;;;0.20;0.20;;;8.80;99.90;;;;;;5051146;28;20924;-90
2023/10/21 10:21:18;;;;;;;0.20;0.20;;;8.80;99.90;;;;;;5032138;28;20445;-91
2023/10/21 10:23:58;;;;;;;0.20;0.20;;;8.90;99.90;;;;;;5052357;28;20494;-91
2023/10/21 10:26:34;;;;;;;0.20;0.20;;;8.90;99.90;;;;;;5053891;28;20425;-91
2023/10/21 10:29:15;;;;;;;0.20;0.20;;;9.10;99.90;;;;;;5029774;28;20424;-92
2023/10/21 10:31:44;;;;;;;0.20;0.20;;;9.00;99.90;;;;;;5048744;28;20437;-90
2023/10/21 10:34:10;;;;;;;0.20;0.20;;;9.10;99.90;;;;;;5051730;28;20504;-91
2023/10/21 10:36:36;;;;;;;0.20;0.20;;;9.10;99.90;;;;;;5052412;28;20921;-91
2023/10/21 10:39:04;;;;;;;0.20;0.20;;;9.20;99.90;;;;;;5049889;28;20269;-90
2023/10/21 10:41:31;;;;;;;0.20;0.20;;;9.20;99.90;;;;;;5051100;28;20208;-90
2023/10/21 10:44:03;;;;;;;0.20;0.20;;;9.20;99.90;;;;;;5051145;28;20433;-90
2023/10/21 10:46:36;;;;;;;0.20;0.20;;;9.20;99.90;;;;;;5050692;28;20464;-90
2023/10/21 10:49:05;;;;;;;0.20;0.20;;;9.20;99.90;;;;;;5033142;28;20441;-91
2023/10/21 10:51:42;;;;;;;0.20;0.20;;;9.20;99.90;;;;;;5032718;28;20485;-91
2023/10/21 10:54:12;;;;;;;0.20;0.20;;;9.30;99.90;;;;;;5050851;28;20864;-90
2023/10/21 10:56:47;;;;;;;0.17;0.17;;;9.20;99.90;;;;;;5051375;28;20436;-91
2023/10/21 10:59:14;;;;;;;0.20;0.20;;;9.20;99.90;;;;;;5051818;28;20436;-91
2023/10/21 11:01:39;;;;;;;0.20;0.20;;;9.20;99.90;;;;;;5051256;28;20440;-91
2023/10/21 11:04:06;;;;;;;0.20;0.20;;;9.20;99.90;;;;;;5051766;28;20490;-90
2023/10/21 11:06:35;;;;;;;0.17;0.17;;;9.20;99.90;;;;;;5051844;28;20193;-93
2023/10/21 11:09:01;;;;;;;0.20;0.20;;;9.20;99.90;;;;;;5047947;28;20437;-92
2023/10/21 11:11:27;;;;;;;0.20;0.20;;;9.20;99.90;;;;;;5051067;28;20584;-94
2023/10/21 11:13:53;;;;;;;0.20;0.20;;;9.20;99.90;;;;;;5033713;28;20524;-93
2023/10/21 11:16:19;;;;;;;0.20;0.20;;;9.40;99.90;;;;;;5050959;28;20460;-94
2023/10/21 11:18:45;;;;;;;0.20;0.20;;;9.40;99.90;;;;;;5052220;28;20468;-93
2023/10/21 11:21:10;;;;;;;0.20;0.20;;;9.40;99.90;;;;;;5050998;28;20874;-94
2023/10/21 11:23:36;;;;;;;0.20;0.20;;;9.40;99.90;;;;;;5034049;28;20739;-92
2023/10/21 11:26:02;;;;;;;0.20;0.20;;;9.50;99.90;;;;;;5050613;28;20676;-93
2023/10/21 11:28:29;;;;;;;0.20;0.20;;;9.50;99.90;;;;;;5049620;28;20252;-93
2023/10/21 11:30:55;;;;;;;0.20;0.20;;;9.50;99.90;;;;;;5047666;28;20502;-93
2023/10/21 11:33:21;;;;;;;0.20;0.20;;;9.50;99.90;;;;;;5028672;28;20437;-93
2023/10/21 11:35:47;;;;;;;0.10;0.10;;;9.50;99.90;;;;;;5066014;28;21002;-93
2023/10/21 11:38:16;;;;;;;0.20;0.20;;;9.60;99.90;;;;;;5052519;28;20468;-94
2023/10/21 11:40:43;;;;;;;0.10;0.10;;;9.70;99.90;;;;;;5045551;28;20442;-94
2023/10/21 11:43:13;;;;;;;0.20;0.20;;;9.70;99.90;;;;;;5051176;28;20491;-94
2023/10/21 11:45:40;;;;;;;0.30;0.30;;;9.70;99.90;;;;;;5037226;28;21012;-93
2023/10/21 11:48:09;;;;;;;0.23;0.23;;;9.70;99.90;;;;;;5020175;28;20486;-93
2023/10/21 11:50:35;;;;;;;0.20;0.20;;;9.60;99.90;;;;;;5048643;28;20469;-94
2023/10/21 11:53:05;;;;;;;0.20;0.20;;;9.60;99.90;;;;;;5055330;28;20468;-94
2023/10/21 11:56:01;;;;;;;0.20;0.20;;;9.50;99.90;;;;;;5054983;28;20499;-94
2023/10/21 12:04:54;;;;;;;0.20;0.20;;;9.40;99.90;;;;;;4992044;28;20494;-93
2023/10/21 12:10:39;;;;;;;0.20;0.20;;;9.50;99.90;;;;;;5052368;28;20439;-91
2023/10/21 12:20:46;;;;;;;0.20;0.20;;;9.40;99.90;;;;;;5054911;28;20882;-92
2023/10/21 12:23:45;;;;;;;0.20;0.20;;;9.40;99.90;;;;;;5056310;28;20417;-91
2023/10/21 12:36:37;;;;;;;0.20;0.20;;;9.40;99.90;;;;;;5051808;28;20820;-93
2023/10/21 12:41:41;;;;;;;0.20;0.20;;;9.40;99.90;;;;;;5055160;28;20456;-92
2023/10/21 12:44:16;;;;;;;0.20;0.20;;;9.40;99.90;;;;;;5054781;28;20432;-93
2023/10/21 12:46:42;;;;;;;0.20;0.20;;;9.40;99.90;;;;;;5053818;28;20482;-93
2023/10/21 12:49:16;;;;;;;0.20;0.20;;;9.40;99.90;;;;;;5052515;28;20429;-93
2023/10/21 12:51:41;;;;;;;0.20;0.20;;;9.40;99.90;;;;;;5054205;28;20509;-93
2023/10/21 12:54:10;;;;;;;0.20;0.20;;;9.40;99.90;;;;;;5035437;28;20496;-92
2023/10/21 12:56:40;;;;;;;0.17;0.17;;;9.30;99.90;;;;;;5036030;28;20527;-89
2023/10/21 12:59:06;;;;;;;0.20;0.20;;;9.30;99.90;;;;;;5033450;28;20400;-89
2023/10/21 13:01:33;;;;;;;0.20;0.20;;;9.30;99.90;;;;;;5051054;28;20986;-90
2023/10/21 13:03:59;;;;;;;0.10;0.10;;;9.30;99.90;;;;;;5051291;28;20943;-88
2023/10/21 13:06:25;;;;;;;0.20;0.20;;;9.30;99.90;;;;;;5034272;28;20445;-89
2023/10/21 13:08:55;;;;;;;0.20;0.20;;;9.30;99.90;;;;;;5048753;28;20293;-89
2023/10/21 13:11:20;;;;;;;0.20;0.20;;;9.30;99.90;;;;;;5050503;28;20480;-89
2023/10/21 13:13:46;;;;;;;0.20;0.20;;;9.30;99.90;;;;;;5051068;28;20451;-89
2023/10/21 13:16:12;;;;;;;0.20;0.20;;;9.20;99.90;;;;;;5051538;28;20190;-89
2023/10/21 13:18:37;;;;;;;0.20;0.20;;;9.20;99.90;;;;;;5050870;28;20185;-90
2023/10/21 13:21:06;;;;;;;0.20;0.20;;;9.20;99.90;;;;;;5051835;28;20217;-90
2023/10/21 13:23:40;;;;;;;0.20;0.20;;;9.10;99.90;;;;;;5051379;28;20186;-92
2023/10/21 13:26:06;;;;;;;0.20;0.20;;;9.10;99.90;;;;;;5050097;28;20452;-89
2023/10/21 13:28:33;;;;;;;0.20;0.20;;;9.10;99.90;;;;;;5050459;28;20480;-90